createdAt,value
2018-11-20T00:01:33.480Z,67.20
2018-11-20T00:04:39.348Z,67.30
2018-11-20T00:07:36.021Z,67.20
2018-11-20T00:10:22.160Z,67.40
2018-11-20T00:13:06.756Z,67.40
2018-11-20T00:15:53.193Z,67.20
2018-11-20T00:18:49.927Z,67.50
2018-11-20T00:21:46.376Z,67.50
2018-11-20T00:24:34.027Z,67.80
2018-11-20T00:27:21.636Z,67.80
2018-11-20T00:30:12.241Z,67.60
2018-11-20T00:32:56.919Z,67.60
2018-11-20T00:35:47.553Z,67.80
2018-11-20T00:38:33.851Z,67.80
2018-11-20T00:41:21.481Z,67.60
2018-11-20T00:44:03.071Z,67.50
2018-11-20T00:46:50.679Z,67.30
2018-11-20T00:49:41.225Z,67.30
2018-11-20T00:52:27.619Z,67.00
2018-11-20T00:55:30.461Z,67.20
2018-11-20T00:58:20.629Z,67.40
2018-11-20T01:00:56.622Z,67.00
2018-11-20T01:03:44.200Z,67.00
2018-11-20T01:06:34.207Z,67.50
2018-11-20T01:09:20.483Z,67.10
2018-11-20T01:12:02.718Z,66.50
2018-11-20T01:15:00.737Z,66.20
2018-11-20T01:17:50.990Z,66.20
2018-11-20T01:20:37.081Z,66.00
2018-11-20T01:23:15.250Z,65.90
2018-11-20T01:26:08.846Z,65.70
2018-11-20T01:28:46.443Z,65.80
2018-11-20T01:31:26.329Z,65.80
2018-11-20T01:34:17.408Z,65.70
2018-11-20T01:37:10.735Z,65.60
2018-11-20T01:40:00.975Z,65.80
2018-11-20T01:43:06.892Z,65.70
2018-11-20T01:45:53.345Z,65.70
2018-11-20T01:48:39.798Z,65.60
2018-11-20T01:51:26.177Z,65.40
2018-11-20T01:54:19.710Z,65.80
2018-11-20T01:56:54.259Z,65.80
2018-11-20T01:59:44.464Z,65.30
2018-11-20T02:02:47.372Z,65.60
2018-11-20T02:05:44.115Z,65.60
2018-11-20T02:08:41.730Z,65.40
2018-11-20T02:11:27.281Z,64.80
2018-11-20T02:14:30.860Z,65.20
2018-11-20T02:17:26.908Z,65.50
2018-11-20T02:20:17.382Z,65.40
2018-11-20T02:23:23.382Z,65.60
2018-11-20T02:26:02.928Z,65.60
2018-11-20T02:28:53.197Z,65.40
2018-11-20T02:31:40.726Z,65.60
2018-11-20T02:34:22.993Z,66.00
2018-11-20T02:37:25.812Z,65.80
2018-11-20T02:40:13.514Z,65.60
2018-11-20T02:42:59.565Z,65.80
2018-11-20T02:45:50.050Z,66.00
2018-11-20T02:48:29.203Z,66.00
2018-11-20T02:51:19.534Z,65.60
2018-11-20T02:54:13.076Z,65.90
2018-11-20T02:57:09.605Z,65.80
2018-11-20T02:59:56.013Z,65.80
2018-11-20T03:02:42.153Z,65.90
2018-11-20T03:05:29.719Z,65.80
2018-11-20T03:08:24.323Z,66.40
2018-11-20T03:11:09.155Z,66.30
2018-11-20T03:14:08.970Z,66.50
2018-11-20T03:17:14.667Z,66.70
2018-11-20T03:20:05.188Z,66.30
2018-11-20T03:22:51.390Z,66.00
2018-11-20T03:25:58.305Z,66.00
2018-11-20T03:28:47.982Z,66.40
2018-11-20T03:31:38.492Z,66.80
2018-11-20T03:34:24.644Z,66.80
2018-11-20T03:37:27.607Z,66.80
2018-11-20T03:40:27.243Z,66.60
2018-11-20T03:43:14.884Z,66.60
2018-11-20T03:46:09.619Z,66.60
2018-11-20T03:48:56.261Z,66.50
2018-11-20T03:51:37.407Z,66.20
2018-11-20T03:54:18.886Z,66.30
2018-11-20T03:57:09.099Z,66.30
2018-11-20T03:59:59.413Z,66.30
2018-11-20T04:02:47.582Z,66.20
2018-11-20T04:05:34.197Z,66.40
2018-11-20T04:08:20.565Z,66.30
2018-11-20T04:11:23.005Z,66.10
2018-11-20T04:14:11.389Z,66.00
2018-11-20T04:16:57.532Z,65.80
2018-11-20T04:19:45.125Z,66.20
2018-11-20T04:22:32.783Z,66.80
2018-11-20T04:25:38.682Z,66.80
2018-11-20T04:28:32.075Z,66.50
2018-11-20T04:31:45.960Z,66.60
2018-11-20T04:34:36.491Z,66.60
2018-11-20T04:37:32.927Z,66.20
2018-11-20T04:40:19.164Z,66.20
2018-11-20T04:43:09.939Z,66.40
2018-11-20T04:45:57.584Z,66.20
2018-11-20T04:48:48.131Z,65.70
2018-11-20T04:51:35.757Z,65.60
2018-11-20T04:54:32.602Z,65.70
2018-11-20T04:57:26.273Z,66.10
2018-11-20T05:00:19.529Z,66.40
2018-11-20T05:03:22.188Z,67.00
2018-11-20T05:06:21.993Z,67.00
2018-11-20T05:09:09.638Z,67.40
2018-11-20T05:12:06.453Z,67.80
2018-11-20T05:14:56.918Z,67.90
2018-11-20T05:17:43.396Z,68.10
2018-11-20T05:20:29.814Z,68.30
2018-11-20T05:23:16.163Z,68.70
2018-11-20T05:25:56.545Z,69.20
2018-11-20T05:28:43.077Z,69.60
2018-11-20T05:31:29.504Z,70.20
2018-11-20T05:34:32.096Z,70.40
2018-11-20T05:37:14.046Z,70.30
2018-11-20T05:40:04.332Z,70.70
2018-11-20T05:42:42.749Z,70.80
2018-11-20T05:45:33.235Z,70.90
2018-11-20T05:48:19.392Z,71.40
2018-11-20T05:51:09.797Z,70.80
2018-11-20T05:54:00.477Z,71.40
2018-11-20T05:56:54.872Z,72.30
2018-11-20T06:00:00.870Z,72.10
2018-11-20T06:02:47.102Z,72.60
2018-11-20T06:05:38.511Z,72.50
2018-11-20T06:08:19.081Z,73.20
2018-11-20T06:11:02.575Z,73.30
2018-11-20T06:13:49.004Z,73.40
2018-11-20T06:16:39.704Z,74.70
2018-11-20T06:19:26.251Z,74.10
2018-11-20T06:22:25.969Z,74.20
2018-11-20T06:25:19.651Z,74.40
2018-11-20T06:28:15.823Z,74.80
2018-11-20T06:31:03.178Z,74.60
2018-11-20T06:33:49.557Z,75.10
2018-11-20T06:36:49.297Z,75.60
2018-11-20T06:39:36.922Z,75.50
2018-11-20T06:42:23.616Z,75.60
2018-11-20T06:45:10.084Z,75.70
2018-11-20T06:48:12.919Z,76.10
2018-11-20T06:51:03.128Z,76.50
2018-11-20T06:53:50.765Z,77.00
2018-11-20T06:56:36.845Z,76.90
2018-11-20T06:59:23.286Z,77.30
2018-11-20T07:02:09.445Z,77.50
2018-11-20T07:04:55.930Z,77.40
2018-11-20T07:07:42.405Z,77.50
2018-11-20T07:10:28.865Z,78.10
2018-11-20T07:13:29.804Z,78.10
2018-11-20T07:17:07.744Z,78.90
2018-11-20T07:20:11.957Z,79.10
2018-11-20T07:23:05.557Z,79.20
2018-11-20T07:25:52.042Z,80.00
2018-11-20T07:28:37.578Z,80.40
2018-11-20T07:31:31.535Z,80.50
2018-11-20T07:34:28.608Z,80.90
2018-11-20T07:37:14.895Z,81.50
2018-11-20T07:40:04.381Z,81.90
2018-11-20T07:42:57.074Z,82.20
2018-11-20T07:45:47.794Z,82.50
2018-11-20T07:48:35.494Z,82.60
2018-11-20T07:51:21.855Z,83.00
2018-11-20T07:54:09.419Z,83.50
2018-11-20T07:57:15.268Z,84.20
2018-11-20T08:00:14.772Z,84.50
2018-11-20T08:03:05.015Z,84.60
2018-11-20T08:05:50.754Z,85.30
2018-11-20T08:08:37.257Z,84.80
2018-11-20T08:11:43.120Z,84.90
2018-11-20T08:14:29.420Z,84.90
2018-11-20T08:17:32.146Z,84.80
2018-11-20T08:20:31.767Z,84.90
2018-11-20T08:23:17.913Z,84.70
2018-11-20T08:26:11.685Z,84.90
2018-11-20T08:29:05.091Z,85.10
2018-11-20T08:31:58.600Z,85.40
2018-11-20T08:34:55.119Z,86.50
2018-11-20T08:37:58.050Z,86.90
2018-11-20T08:41:03.768Z,86.80
2018-11-20T08:44:09.677Z,87.30
2018-11-20T08:47:07.413Z,87.30
2018-11-20T08:50:03.795Z,87.20
2018-11-20T08:52:52.912Z,87.70
2018-11-20T08:55:55.555Z,88.00
2018-11-20T08:58:52.385Z,87.60
2018-11-20T09:01:49.215Z,87.70
2018-11-20T09:04:55.096Z,87.90
2018-11-20T09:07:48.631Z,87.70
2018-11-20T09:10:30.122Z,87.60
2018-11-20T09:13:16.418Z,88.20
2018-11-20T09:16:42.576Z,88.10
2018-11-20T09:19:30.794Z,87.60
2018-11-20T09:22:26.454Z,87.60
2018-11-20T09:25:11.893Z,87.10
2018-11-20T09:27:58.741Z,85.80
2018-11-20T09:30:54.743Z,84.10
2018-11-20T09:33:44.188Z,84.00
2018-11-20T09:36:43.095Z,82.20
2018-11-20T09:39:48.193Z,82.30
2018-11-20T09:42:38.008Z,82.60
2018-11-20T09:46:14.463Z,81.80
2018-11-20T09:48:59.874Z,82.00
2018-11-20T09:51:58.565Z,80.80
2018-11-20T09:55:03.736Z,80.40
2018-11-20T09:57:49.429Z,79.80
2018-11-20T10:00:37.351Z,80.80
2018-11-20T10:03:13.899Z,80.80
2018-11-20T10:06:07.749Z,80.10
2018-11-20T10:09:03.410Z,80.30
2018-11-20T10:12:02.382Z,79.30
2018-11-20T10:14:58.354Z,77.90
2018-11-20T10:17:43.844Z,78.50
2018-11-20T10:20:29.411Z,77.80
2018-11-20T10:23:31.140Z,77.70
2018-11-20T10:26:17.921Z,78.00
2018-11-20T10:29:13.633Z,77.90
2018-11-20T10:32:01.143Z,79.00
2018-11-20T10:34:53.812Z,78.00
2018-11-20T10:37:37.158Z,77.90
2018-11-20T10:40:25.135Z,77.50
2018-11-20T10:43:10.455Z,76.80
2018-11-20T10:45:51.782Z,74.90
2018-11-20T10:48:47.835Z,74.30
2018-11-20T10:51:28.226Z,74.30
2018-11-20T10:54:27.026Z,74.80
2018-11-20T10:57:13.798Z,74.40
2018-11-20T11:00:04.429Z,74.10
2018-11-20T11:02:49.694Z,75.50
2018-11-20T11:05:46.861Z,74.90
2018-11-20T11:08:32.116Z,74.80
2018-11-20T11:11:07.013Z,73.10
2018-11-20T11:14:06.351Z,73.00
2018-11-20T11:16:51.929Z,72.70
2018-11-20T11:19:41.553Z,72.40
2018-11-20T11:22:27.441Z,70.90
2018-11-20T11:25:14.238Z,71.30
2018-11-20T11:28:16.245Z,71.60
2018-11-20T11:30:55.606Z,70.30
2018-11-20T11:33:37.221Z,69.30
2018-11-20T11:36:36.120Z,70.80
2018-11-20T11:39:32.475Z,71.10
2018-11-20T11:42:19.273Z,70.20
2018-11-20T11:45:03.509Z,69.50
2018-11-20T11:47:47.946Z,70.40
2018-11-20T11:50:43.648Z,71.10
2018-11-20T11:53:20.856Z,68.70
2018-11-20T11:56:06.342Z,67.70
2018-11-20T11:58:53.099Z,69.00
2018-11-20T12:04:14.008Z,70.40
2018-11-20T12:07:00.832Z,70.70
2018-11-20T12:09:38.563Z,66.80
2018-11-20T12:12:23.948Z,67.30
2018-11-20T12:15:16.335Z,68.40
2018-11-20T12:18:11.765Z,68.10
2018-11-20T12:20:57.358Z,68.10
2018-11-20T12:23:59.081Z,68.10
2018-11-20T12:26:52.009Z,68.20
2018-11-20T12:29:55.515Z,68.50
2018-11-20T12:32:55.791Z,67.50
2018-11-20T12:35:38.453Z,67.10
2018-11-20T12:38:28.643Z,68.10
2018-11-20T12:41:14.173Z,68.20
2018-11-20T12:43:59.666Z,69.40
2018-11-20T12:46:45.052Z,68.60
2018-11-20T12:49:32.154Z,67.90
2018-11-20T12:52:18.384Z,68.10
2018-11-20T12:55:07.766Z,67.50
2018-11-20T12:57:56.676Z,67.60
2018-11-20T13:00:44.227Z,68.50
2018-11-20T13:03:43.116Z,68.00
2018-11-20T13:06:32.552Z,66.50
2018-11-20T13:09:16.459Z,66.10
2018-11-20T13:12:05.811Z,66.60
2018-11-20T13:14:46.084Z,64.10
2018-11-20T13:17:33.653Z,63.70
2018-11-20T13:20:22.626Z,63.20
2018-11-20T13:23:17.993Z,62.20
2018-11-20T13:26:02.343Z,64.20
2018-11-20T13:29:04.058Z,63.40
2018-11-20T13:31:51.621Z,62.80
2018-11-20T13:34:37.884Z,64.00
2018-11-20T13:37:32.025Z,64.20
2018-11-20T13:40:19.696Z,64.50
2018-11-20T13:43:12.754Z,65.70
2018-11-20T13:46:05.570Z,64.20
2018-11-20T13:48:51.954Z,63.60
2018-11-20T13:51:42.615Z,61.70
2018-11-20T13:54:38.350Z,62.10
2018-11-20T13:57:27.945Z,63.40
2018-11-20T14:00:20.877Z,63.40
2018-11-20T14:03:06.474Z,63.60
2018-11-20T14:05:51.767Z,63.50
2018-11-20T14:08:28.584Z,63.20
2018-11-20T14:11:14.958Z,58.30
2018-11-20T14:14:08.489Z,55.40
2018-11-20T14:17:10.561Z,55.40
2018-11-20T14:19:53.771Z,52.80
2018-11-20T14:22:49.539Z,54.90
2018-11-20T14:25:39.936Z,54.60
2018-11-20T14:28:35.101Z,55.80
2018-11-20T14:31:16.044Z,55.90
2018-11-20T14:34:20.835Z,54.30
2018-11-20T14:37:22.901Z,52.50
2018-11-20T14:40:00.876Z,52.50
2018-11-20T14:42:51.676Z,51.70
2018-11-20T14:45:27.951Z,52.50
2018-11-20T14:48:33.086Z,53.70
2018-11-20T14:51:15.095Z,55.00
2018-11-20T14:54:06.571Z,50.50
2018-11-20T14:56:54.761Z,51.30
2018-11-20T14:59:50.628Z,50.90
2018-11-20T15:02:46.376Z,50.60
2018-11-20T15:05:44.149Z,52.20
2018-11-20T15:08:36.925Z,52.60
2018-11-20T15:11:30.346Z,52.70
2018-11-20T15:14:19.960Z,54.00
2018-11-20T15:17:06.718Z,54.70
2018-11-20T15:19:52.397Z,54.80
2018-11-20T15:22:54.150Z,55.60
2018-11-20T15:25:41.550Z,55.80
2018-11-20T15:28:26.807Z,56.00
2018-11-20T15:31:12.145Z,56.00
2018-11-20T15:33:49.959Z,57.40
2018-11-20T15:36:35.609Z,57.40
2018-11-20T15:39:13.452Z,57.30
2018-11-20T15:41:55.550Z,57.90
2018-11-20T15:44:41.277Z,58.10
2018-11-20T15:47:33.000Z,57.90
2018-11-20T15:50:18.523Z,58.40
2018-11-20T15:53:08.306Z,58.70
2018-11-20T15:55:54.153Z,58.80
2018-11-20T15:58:39.289Z,58.90
2018-11-20T16:01:24.592Z,59.10
2018-11-20T16:04:09.347Z,59.30
2018-11-20T16:06:45.257Z,59.40
2018-11-20T16:09:30.711Z,59.60
2018-11-20T16:12:16.128Z,59.50
2018-11-20T16:15:02.924Z,59.80
2018-11-20T16:17:52.655Z,60.10
2018-11-20T16:20:38.419Z,60.40
2018-11-20T16:23:16.821Z,60.60
2018-11-20T16:26:15.767Z,61.10
2018-11-20T16:29:11.338Z,61.00
2018-11-20T16:31:56.562Z,61.30
2018-11-20T16:34:52.298Z,61.30
2018-11-20T16:37:37.934Z,61.70
2018-11-20T16:40:31.863Z,61.70
2018-11-20T16:43:30.191Z,61.70
2018-11-20T16:46:35.156Z,61.90
2018-11-20T16:49:24.563Z,62.10
2018-11-20T16:52:10.249Z,62.20
2018-11-20T16:54:55.566Z,62.40
2018-11-20T16:57:42.332Z,62.40
2018-11-20T17:00:29.173Z,62.50
2018-11-20T17:03:14.666Z,62.80
2018-11-20T17:06:04.039Z,63.10
2018-11-20T17:08:49.740Z,63.20
2018-11-20T17:11:35.234Z,63.40
2018-11-20T17:14:24.615Z,63.40
2018-11-20T17:17:10.296Z,63.40
2018-11-20T17:20:09.034Z,63.40
2018-11-20T17:22:54.611Z,63.50
2018-11-20T17:25:41.418Z,63.40
2018-11-20T17:28:46.189Z,63.50
2018-11-20T17:31:47.947Z,63.70
2018-11-20T17:34:50.049Z,63.60
2018-11-20T17:37:39.665Z,63.60
2018-11-20T17:40:26.556Z,63.70
2018-11-20T17:43:11.516Z,63.70
2018-11-20T17:45:57.055Z,63.80
2018-11-20T17:48:49.546Z,63.90
2018-11-20T17:51:38.982Z,64.00
2018-11-20T17:54:29.437Z,64.20
2018-11-20T17:57:20.333Z,64.30
2018-11-20T18:00:11.590Z,64.40
2018-11-20T18:02:58.598Z,64.50
2018-11-20T18:05:42.463Z,64.50
2018-11-20T18:08:28.273Z,64.60
2018-11-20T18:11:16.838Z,64.60
2018-11-20T18:14:13.840Z,64.60
2018-11-20T18:17:08.466Z,64.60
2018-11-20T18:20:09.284Z,64.70
2018-11-20T18:23:05.145Z,64.80
2018-11-20T18:25:51.983Z,64.90
2018-11-20T18:28:37.259Z,65.10
2018-11-20T18:31:41.718Z,65.20
2018-11-20T18:34:26.347Z,65.10
2018-11-20T18:37:11.658Z,65.20
2018-11-20T18:40:01.285Z,65.40
2018-11-20T18:42:49.523Z,65.50
2018-11-20T18:45:34.782Z,65.70
2018-11-20T18:48:21.761Z,65.50
2018-11-20T18:51:22.104Z,65.70
2018-11-20T18:54:25.975Z,65.80
2018-11-20T18:57:05.163Z,65.70
2018-11-20T18:59:55.270Z,65.60
2018-11-20T19:02:45.173Z,65.80
2018-11-20T19:05:43.786Z,65.70
2018-11-20T19:08:29.231Z,66.00
2018-11-20T19:11:16.155Z,66.20
2018-11-20T19:14:01.690Z,66.20
2018-11-20T19:16:47.027Z,66.40
2018-11-20T19:19:48.745Z,66.60
2018-11-20T19:22:27.699Z,66.60
2018-11-20T19:25:35.224Z,66.70
2018-11-20T19:28:20.784Z,66.90
2018-11-20T19:31:08.970Z,67.10
2018-11-20T19:33:55.850Z,67.20
2018-11-20T19:36:51.811Z,67.70
2018-11-20T19:39:40.246Z,67.40
2018-11-20T19:42:35.944Z,67.50
2018-11-20T19:45:37.674Z,67.30
2018-11-20T19:48:33.965Z,67.60
2018-11-20T19:51:29.546Z,67.60
2018-11-20T19:54:19.423Z,67.70
2018-11-20T19:57:15.196Z,67.60
2018-11-20T20:00:02.010Z,67.70
2018-11-20T20:02:47.568Z,67.80
2018-11-20T20:05:33.082Z,67.90
2018-11-20T20:08:21.218Z,67.80
2018-11-20T20:11:08.020Z,67.80
2018-11-20T20:13:57.741Z,67.80
2018-11-20T20:16:43.164Z,67.90
2018-11-20T20:19:28.495Z,68.00
2018-11-20T20:22:14.624Z,68.50
2018-11-20T20:24:53.387Z,68.20
2018-11-20T20:27:44.410Z,68.50
2018-11-20T20:30:30.214Z,68.20
2018-11-20T20:33:18.711Z,68.30
2018-11-20T20:36:20.611Z,68.30
2018-11-20T20:39:25.695Z,68.40
2018-11-20T20:42:24.879Z,68.40
2018-11-20T20:45:09.947Z,68.50
2018-11-20T20:48:02.398Z,68.50
2018-11-20T20:50:46.048Z,69.30
2018-11-20T20:53:50.988Z,68.70
2018-11-20T20:56:30.101Z,68.70
2018-11-20T20:59:22.450Z,68.80
2018-11-20T21:02:09.260Z,68.70
2018-11-20T21:04:56.500Z,68.90
2018-11-20T21:07:43.265Z,69.20
2018-11-20T21:10:40.760Z,69.20
2018-11-20T21:13:26.487Z,69.10
2018-11-20T21:16:11.982Z,69.50
2018-11-20T21:18:57.224Z,69.30
2018-11-20T21:21:49.769Z,69.40
2018-11-20T21:24:54.603Z,69.50
2018-11-20T21:27:44.352Z,69.60
2018-11-20T21:30:29.335Z,69.70
2018-11-20T21:33:22.007Z,70.00
2018-11-20T21:36:24.071Z,70.10
2018-11-20T21:39:13.824Z,70.10
2018-11-20T21:41:51.611Z,70.20
2018-11-20T21:44:44.050Z,70.30
2018-11-20T21:47:27.356Z,70.30
2018-11-20T21:50:19.764Z,70.30
2018-11-20T21:53:05.019Z,70.40
2018-11-20T21:56:09.880Z,70.60
2018-11-20T21:58:57.076Z,70.40
2018-11-20T22:01:42.436Z,70.60
2018-11-20T22:04:31.831Z,70.70
2018-11-20T22:07:24.531Z,70.80
2018-11-20T22:10:03.516Z,70.80
2018-11-20T22:12:48.844Z,70.80
2018-11-20T22:15:44.511Z,70.80
2018-11-20T22:18:30.216Z,70.90
2018-11-20T22:21:13.840Z,70.90
2018-11-20T22:24:12.448Z,70.80
2018-11-20T22:27:02.185Z,71.00
2018-11-20T22:29:54.647Z,71.00
2018-11-20T22:32:56.625Z,71.10
2018-11-20T22:36:01.516Z,71.20
2018-11-20T22:38:44.737Z,71.30
2018-11-20T22:41:34.218Z,71.30
2018-11-20T22:44:14.127Z,71.40
2018-11-20T22:47:19.046Z,71.50
2018-11-20T22:50:04.557Z,71.50
2018-11-20T22:52:54.110Z,71.50
2018-11-20T22:55:40.141Z,71.50
2018-11-20T22:58:26.992Z,71.60
2018-11-20T23:01:12.951Z,71.60
2018-11-20T23:03:58.753Z,71.70
2018-11-20T23:06:44.645Z,71.70
2018-11-20T23:09:12.154Z,71.80
2018-11-20T23:11:40.122Z,72.00
2018-11-20T23:14:07.354Z,72.00
2018-11-20T23:16:34.682Z,72.10
2018-11-20T23:19:01.966Z,72.10
2018-11-20T23:21:29.679Z,72.30
2018-11-20T23:23:56.940Z,72.30
2018-11-20T23:26:24.244Z,72.20
2018-11-20T23:28:51.531Z,72.10
2018-11-20T23:31:18.906Z,72.20
2018-11-20T23:33:46.302Z,72.30
2018-11-20T23:36:13.591Z,72.30
2018-11-20T23:38:40.926Z,72.30
2018-11-20T23:41:08.303Z,72.10
2018-11-20T23:43:35.627Z,72.70
2018-11-20T23:46:04.653Z,72.30
2018-11-20T23:48:31.918Z,72.40
2018-11-20T23:50:59.232Z,72.50
2018-11-20T23:53:26.554Z,72.60
2018-11-20T23:55:55.872Z,72.70
2018-11-20T23:58:23.116Z,72.60
